sensor_id;sensor_type;location;lat;lon;timestamp;temperature;humidity
24164;DHT22;12319;49.204;8.116;2023-04-16T00:02:17;10.70;88.70
24164;DHT22;12319;49.204;8.116;2023-04-16T00:04:42;10.70;88.60
24164;DHT22;12319;49.204;8.116;2023-04-16T00:07:08;10.80;88.80
24164;DHT22;12319;49.204;8.116;2023-04-16T00:09:33;10.80;89.20
24164;DHT22;12319;49.204;8.116;2023-04-16T00:11:59;10.80;89.30
24164;DHT22;12319;49.204;8.116;2023-04-16T00:14:25;10.80;89.40
24164;DHT22;12319;49.204;8.116;2023-04-16T00:16:50;10.80;89.30
24164;DHT22;12319;49.204;8.116;2023-04-16T00:19:16;10.70;89.00
24164;DHT22;12319;49.204;8.116;2023-04-16T00:21:41;10.70;89.70
24164;DHT22;12319;49.204;8.116;2023-04-16T00:24:07;10.70;89.20
24164;DHT22;12319;49.204;8.116;2023-04-16T00:26:32;10.70;89.00
24164;DHT22;12319;49.204;8.116;2023-04-16T00:28:59;10.70;89.10
24164;DHT22;12319;49.204;8.116;2023-04-16T00:31:26;10.70;89.50
24164;DHT22;12319;49.204;8.116;2023-04-16T00:33:52;10.70;89.40
24164;DHT22;12319;49.204;8.116;2023-04-16T00:36:17;10.80;89.50
24164;DHT22;12319;49.204;8.116;2023-04-16T00:38:43;10.70;89.70
24164;DHT22;12319;49.204;8.116;2023-04-16T00:41:08;10.80;89.80
24164;DHT22;12319;49.204;8.116;2023-04-16T00:43:34;10.70;89.70
24164;DHT22;12319;49.204;8.116;2023-04-16T00:46:00;10.70;89.50
24164;DHT22;12319;49.204;8.116;2023-04-16T00:48:28;10.70;89.10
24164;DHT22;12319;49.204;8.116;2023-04-16T00:50:56;10.70;89.40
24164;DHT22;12319;49.204;8.116;2023-04-16T00:53:23;10.70;89.30
24164;DHT22;12319;49.204;8.116;2023-04-16T00:55:49;10.70;89.50
24164;DHT22;12319;49.204;8.116;2023-04-16T00:58:15;10.70;89.40
24164;DHT22;12319;49.204;8.116;2023-04-16T01:00:40;10.70;89.30
24164;DHT22;12319;49.204;8.116;2023-04-16T01:03:06;10.70;89.20
24164;DHT22;12319;49.204;8.116;2023-04-16T01:05:32;10.70;89.60
24164;DHT22;12319;49.204;8.116;2023-04-16T01:07:58;10.70;89.20
24164;DHT22;12319;49.204;8.116;2023-04-16T01:10:25;10.80;89.60
24164;DHT22;12319;49.204;8.116;2023-04-16T01:12:51;10.70;89.70
24164;DHT22;12319;49.204;8.116;2023-04-16T01:15:16;10.80;89.50
24164;DHT22;12319;49.204;8.116;2023-04-16T01:17:44;10.80;89.50
24164;DHT22;12319;49.204;8.116;2023-04-16T01:20:10;10.80;89.70
24164;DHT22;12319;49.204;8.116;2023-04-16T01:22:36;10.80;89.70
24164;DHT22;12319;49.204;8.116;2023-04-16T01:25:01;10.80;89.60
24164;DHT22;12319;49.204;8.116;2023-04-16T01:27:27;10.80;89.70
24164;DHT22;12319;49.204;8.116;2023-04-16T01:29:52;10.80;89.70
24164;DHT22;12319;49.204;8.116;2023-04-16T01:32:18;10.80;89.90
24164;DHT22;12319;49.204;8.116;2023-04-16T01:34:43;10.80;89.90
24164;DHT22;12319;49.204;8.116;2023-04-16T01:37:10;10.80;90.10
24164;DHT22;12319;49.204;8.116;2023-04-16T01:39:36;10.80;90.00
24164;DHT22;12319;49.204;8.116;2023-04-16T01:42:01;10.70;90.00
24164;DHT22;12319;49.204;8.116;2023-04-16T01:44:27;10.70;90.00
24164;DHT22;12319;49.204;8.116;2023-04-16T01:46:52;10.70;89.70
24164;DHT22;12319;49.204;8.116;2023-04-16T01:49:18;10.70;90.00
24164;DHT22;12319;49.204;8.116;2023-04-16T01:51:44;10.70;89.90
24164;DHT22;12319;49.204;8.116;2023-04-16T01:54:10;10.80;89.90
24164;DHT22;12319;49.204;8.116;2023-04-16T01:56:35;10.80;90.00
24164;DHT22;12319;49.204;8.116;2023-04-16T01:59:01;10.70;89.70
24164;DHT22;12319;49.204;8.116;2023-04-16T02:01:26;10.80;90.00
24164;DHT22;12319;49.204;8.116;2023-04-16T02:03:53;10.80;90.00
24164;DHT22;12319;49.204;8.116;2023-04-16T02:06:18;10.80;89.60
24164;DHT22;12319;49.204;8.116;2023-04-16T02:08:44;10.80;90.00
24164;DHT22;12319;49.204;8.116;2023-04-16T02:11:09;10.80;89.90
24164;DHT22;12319;49.204;8.116;2023-04-16T02:13:35;10.70;89.80
24164;DHT22;12319;49.204;8.116;2023-04-16T02:16:01;10.70;90.10
24164;DHT22;12319;49.204;8.116;2023-04-16T02:18:27;10.70;90.00
24164;DHT22;12319;49.204;8.116;2023-04-16T02:20:52;10.70;90.00
24164;DHT22;12319;49.204;8.116;2023-04-16T02:23:18;10.70;90.10
24164;DHT22;12319;49.204;8.116;2023-04-16T02:25:45;10.70;90.10
24164;DHT22;12319;49.204;8.116;2023-04-16T02:28:13;10.70;90.10
24164;DHT22;12319;49.204;8.116;2023-04-16T02:30:39;10.70;90.20
24164;DHT22;12319;49.204;8.116;2023-04-16T02:33:06;10.70;89.80
24164;DHT22;12319;49.204;8.116;2023-04-16T02:35:33;10.80;90.00
24164;DHT22;12319;49.204;8.116;2023-04-16T02:37:58;11.10;90.20
24164;DHT22;12319;49.204;8.116;2023-04-16T02:40:25;10.70;90.00
24164;DHT22;12319;49.204;8.116;2023-04-16T02:42:51;10.80;90.00
24164;DHT22;12319;49.204;8.116;2023-04-16T02:45:17;10.70;90.00
24164;DHT22;12319;49.204;8.116;2023-04-16T02:47:43;10.70;90.00
24164;DHT22;12319;49.204;8.116;2023-04-16T02:50:09;10.70;90.10
24164;DHT22;12319;49.204;8.116;2023-04-16T02:52:34;10.70;90.10
24164;DHT22;12319;49.204;8.116;2023-04-16T02:55:00;10.70;90.30
24164;DHT22;12319;49.204;8.116;2023-04-16T02:57:26;10.70;90.20
24164;DHT22;12319;49.204;8.116;2023-04-16T02:59:51;10.70;90.20
24164;DHT22;12319;49.204;8.116;2023-04-16T03:02:17;10.70;90.20
24164;DHT22;12319;49.204;8.116;2023-04-16T03:04:42;10.70;90.20
24164;DHT22;12319;49.204;8.116;2023-04-16T03:07:08;10.70;90.20
24164;DHT22;12319;49.204;8.116;2023-04-16T03:09:34;10.70;90.20
24164;DHT22;12319;49.204;8.116;2023-04-16T03:12:00;10.70;90.20
24164;DHT22;12319;49.204;8.116;2023-04-16T03:14:29;10.70;90.10
24164;DHT22;12319;49.204;8.116;2023-04-16T03:16:55;10.70;90.10
24164;DHT22;12319;49.204;8.116;2023-04-16T03:19:21;10.70;90.20
24164;DHT22;12319;49.204;8.116;2023-04-16T03:21:46;10.70;90.40
24164;DHT22;12319;49.204;8.116;2023-04-16T03:24:12;10.70;90.10
24164;DHT22;12319;49.204;8.116;2023-04-16T03:26:37;10.70;90.00
24164;DHT22;12319;49.204;8.116;2023-04-16T03:29:03;10.70;90.10
24164;DHT22;12319;49.204;8.116;2023-04-16T03:31:29;10.70;90.10
24164;DHT22;12319;49.204;8.116;2023-04-16T03:33:54;10.70;90.20
24164;DHT22;12319;49.204;8.116;2023-04-16T03:36:20;10.60;90.20
24164;DHT22;12319;49.204;8.116;2023-04-16T03:38:47;10.60;90.20
24164;DHT22;12319;49.204;8.116;2023-04-16T03:41:12;10.60;90.20
24164;DHT22;12319;49.204;8.116;2023-04-16T03:43:38;10.60;90.40
24164;DHT22;12319;49.204;8.116;2023-04-16T03:46:04;10.60;90.50
24164;DHT22;12319;49.204;8.116;2023-04-16T03:48:29;10.60;90.30
24164;DHT22;12319;49.204;8.116;2023-04-16T03:50:55;10.60;90.30
24164;DHT22;12319;49.204;8.116;2023-04-16T03:53:20;10.60;90.20
24164;DHT22;12319;49.204;8.116;2023-04-16T03:55:48;10.60;90.30
24164;DHT22;12319;49.204;8.116;2023-04-16T03:58:15;10.60;90.40
24164;DHT22;12319;49.204;8.116;2023-04-16T04:00:41;10.60;90.40
24164;DHT22;12319;49.204;8.116;2023-04-16T04:03:08;10.60;90.40
24164;DHT22;12319;49.204;8.116;2023-04-16T04:05:38;10.60;90.40
24164;DHT22;12319;49.204;8.116;2023-04-16T04:08:03;10.60;90.50
24164;DHT22;12319;49.204;8.116;2023-04-16T04:10:34;10.60;90.40
24164;DHT22;12319;49.204;8.116;2023-04-16T04:13:02;10.60;90.40
24164;DHT22;12319;49.204;8.116;2023-04-16T04:15:28;10.60;90.30
24164;DHT22;12319;49.204;8.116;2023-04-16T04:17:53;10.60;90.20
24164;DHT22;12319;49.204;8.116;2023-04-16T04:20:19;10.60;90.30
24164;DHT22;12319;49.204;8.116;2023-04-16T04:22:45;10.60;90.30
24164;DHT22;12319;49.204;8.116;2023-04-16T04:25:10;10.70;90.30
24164;DHT22;12319;49.204;8.116;2023-04-16T04:27:36;10.70;90.40
24164;DHT22;12319;49.204;8.116;2023-04-16T04:30:02;10.70;90.30
24164;DHT22;12319;49.204;8.116;2023-04-16T04:32:31;10.70;90.30
24164;DHT22;12319;49.204;8.116;2023-04-16T04:35:00;10.60;90.40
24164;DHT22;12319;49.204;8.116;2023-04-16T04:37:25;10.60;90.30
24164;DHT22;12319;49.204;8.116;2023-04-16T04:39:51;10.60;90.50
24164;DHT22;12319;49.204;8.116;2023-04-16T04:42:17;10.60;90.40
24164;DHT22;12319;49.204;8.116;2023-04-16T04:44:43;10.60;90.40
24164;DHT22;12319;49.204;8.116;2023-04-16T04:47:09;10.60;90.30
24164;DHT22;12319;49.204;8.116;2023-04-16T04:49:34;10.60;90.40
24164;DHT22;12319;49.204;8.116;2023-04-16T04:52:00;10.60;90.40
24164;DHT22;12319;49.204;8.116;2023-04-16T04:54:27;10.70;90.50
24164;DHT22;12319;49.204;8.116;2023-04-16T04:56:53;10.60;90.70
24164;DHT22;12319;49.204;8.116;2023-04-16T04:59:20;10.60;90.50
24164;DHT22;12319;49.204;8.116;2023-04-16T05:01:45;10.60;90.50
24164;DHT22;12319;49.204;8.116;2023-04-16T05:04:11;10.60;90.50
24164;DHT22;12319;49.204;8.116;2023-04-16T05:06:36;10.60;90.60
24164;DHT22;12319;49.204;8.116;2023-04-16T05:09:02;10.60;90.50
24164;DHT22;12319;49.204;8.116;2023-04-16T05:11:28;10.60;90.50
24164;DHT22;12319;49.204;8.116;2023-04-16T05:13:54;10.60;90.50
24164;DHT22;12319;49.204;8.116;2023-04-16T05:16:19;10.60;90.40
24164;DHT22;12319;49.204;8.116;2023-04-16T05:18:45;10.70;90.40
24164;DHT22;12319;49.204;8.116;2023-04-16T05:21:10;10.70;90.70
24164;DHT22;12319;49.204;8.116;2023-04-16T05:23:36;10.70;90.30
24164;DHT22;12319;49.204;8.116;2023-04-16T05:26:02;10.70;90.40
24164;DHT22;12319;49.204;8.116;2023-04-16T05:28:29;10.80;90.50
24164;DHT22;12319;49.204;8.116;2023-04-16T05:30:55;10.80;90.30
24164;DHT22;12319;49.204;8.116;2023-04-16T05:33:20;10.80;90.20
24164;DHT22;12319;49.204;8.116;2023-04-16T05:35:46;10.80;90.20
24164;DHT22;12319;49.204;8.116;2023-04-16T05:38:11;10.80;90.20
24164;DHT22;12319;49.204;8.116;2023-04-16T05:40:37;10.90;90.10
24164;DHT22;12319;49.204;8.116;2023-04-16T05:43:02;10.90;90.10
24164;DHT22;12319;49.204;8.116;2023-04-16T05:45:28;10.90;90.10
24164;DHT22;12319;49.204;8.116;2023-04-16T05:47:53;10.90;90.10
24164;DHT22;12319;49.204;8.116;2023-04-16T05:50:19;10.90;90.20
24164;DHT22;12319;49.204;8.116;2023-04-16T05:52:44;11.00;90.10
24164;DHT22;12319;49.204;8.116;2023-04-16T05:55:10;11.00;90.00
24164;DHT22;12319;49.204;8.116;2023-04-16T05:57:36;11.10;90.00
24164;DHT22;12319;49.204;8.116;2023-04-16T06:00:01;11.10;89.80
24164;DHT22;12319;49.204;8.116;2023-04-16T06:02:28;11.10;89.40
24164;DHT22;12319;49.204;8.116;2023-04-16T06:04:55;11.10;89.30
24164;DHT22;12319;49.204;8.116;2023-04-16T06:07:21;11.10;89.80
24164;DHT22;12319;49.204;8.116;2023-04-16T06:09:46;11.10;89.30
24164;DHT22;12319;49.204;8.116;2023-04-16T06:12:12;11.20;89.20
24164;DHT22;12319;49.204;8.116;2023-04-16T06:14:37;11.20;89.00
24164;DHT22;12319;49.204;8.116;2023-04-16T06:17:03;11.20;88.70
24164;DHT22;12319;49.204;8.116;2023-04-16T06:19:28;11.30;88.90
24164;DHT22;12319;49.204;8.116;2023-04-16T06:21:54;11.30;88.80
24164;DHT22;12319;49.204;8.116;2023-04-16T06:24:20;11.30;88.50
24164;DHT22;12319;49.204;8.116;2023-04-16T06:26:45;11.40;88.50
24164;DHT22;12319;49.204;8.116;2023-04-16T06:29:11;11.40;88.20
24164;DHT22;12319;49.204;8.116;2023-04-16T06:31:36;11.40;88.00
24164;DHT22;12319;49.204;8.116;2023-04-16T06:34:02;11.50;87.80
24164;DHT22;12319;49.204;8.116;2023-04-16T06:36:27;11.50;87.60
24164;DHT22;12319;49.204;8.116;2023-04-16T06:38:53;11.40;87.30
24164;DHT22;12319;49.204;8.116;2023-04-16T06:41:19;11.50;87.50
24164;DHT22;12319;49.204;8.116;2023-04-16T06:43:44;11.50;87.10
24164;DHT22;12319;49.204;8.116;2023-04-16T06:46:10;11.50;86.90
24164;DHT22;12319;49.204;8.116;2023-04-16T06:48:35;11.60;87.00
24164;DHT22;12319;49.204;8.116;2023-04-16T06:51:01;11.70;87.10
24164;DHT22;12319;49.204;8.116;2023-04-16T06:53:27;11.80;86.70
24164;DHT22;12319;49.204;8.116;2023-04-16T06:55:52;11.90;86.50
24164;DHT22;12319;49.204;8.116;2023-04-16T06:58:18;12.10;86.20
24164;DHT22;12319;49.204;8.116;2023-04-16T07:00:44;12.20;86.20
24164;DHT22;12319;49.204;8.116;2023-04-16T07:03:10;12.30;86.00
24164;DHT22;12319;49.204;8.116;2023-04-16T07:05:35;12.40;85.60
24164;DHT22;12319;49.204;8.116;2023-04-16T07:08:01;12.40;85.10
24164;DHT22;12319;49.204;8.116;2023-04-16T07:10:26;12.40;84.80
24164;DHT22;12319;49.204;8.116;2023-04-16T07:12:52;12.50;84.80
24164;DHT22;12319;49.204;8.116;2023-04-16T07:15:17;12.40;84.60
24164;DHT22;12319;49.204;8.116;2023-04-16T07:17:43;12.40;84.40
24164;DHT22;12319;49.204;8.116;2023-04-16T07:20:09;12.30;84.40
24164;DHT22;12319;49.204;8.116;2023-04-16T07:22:35;12.30;84.40
24164;DHT22;12319;49.204;8.116;2023-04-16T07:25:00;12.30;84.30
24164;DHT22;12319;49.204;8.116;2023-04-16T07:27:26;12.20;84.10
24164;DHT22;12319;49.204;8.116;2023-04-16T07:29:51;12.20;84.20
24164;DHT22;12319;49.204;8.116;2023-04-16T07:32:17;12.30;84.40
24164;DHT22;12319;49.204;8.116;2023-04-16T07:34:42;12.30;84.40
24164;DHT22;12319;49.204;8.116;2023-04-16T07:37:08;12.30;84.30
24164;DHT22;12319;49.204;8.116;2023-04-16T07:39:33;12.40;84.20
24164;DHT22;12319;49.204;8.116;2023-04-16T07:41:59;12.40;84.10
24164;DHT22;12319;49.204;8.116;2023-04-16T07:44:25;12.40;83.90
24164;DHT22;12319;49.204;8.116;2023-04-16T07:46:51;12.40;84.10
24164;DHT22;12319;49.204;8.116;2023-04-16T07:49:16;12.50;84.00
24164;DHT22;12319;49.204;8.116;2023-04-16T07:51:42;12.50;83.90
24164;DHT22;12319;49.204;8.116;2023-04-16T07:54:07;12.60;84.00
24164;DHT22;12319;49.204;8.116;2023-04-16T07:56:33;12.50;83.70
24164;DHT22;12319;49.204;8.116;2023-04-16T07:58:58;12.60;83.90
24164;DHT22;12319;49.204;8.116;2023-04-16T08:01:24;12.60;83.90
24164;DHT22;12319;49.204;8.116;2023-04-16T08:03:50;12.60;83.90
24164;DHT22;12319;49.204;8.116;2023-04-16T08:06:16;12.70;83.90
24164;DHT22;12319;49.204;8.116;2023-04-16T08:08:41;12.70;83.90
24164;DHT22;12319;49.204;8.116;2023-04-16T08:11:07;12.90;83.90
24164;DHT22;12319;49.204;8.116;2023-04-16T08:13:33;13.00;83.70
24164;DHT22;12319;49.204;8.116;2023-04-16T08:15:58;13.10;83.60
24164;DHT22;12319;49.204;8.116;2023-04-16T08:18:24;13.10;83.30
24164;DHT22;12319;49.204;8.116;2023-04-16T08:20:49;13.10;83.10
24164;DHT22;12319;49.204;8.116;2023-04-16T08:23:15;13.10;83.00
24164;DHT22;12319;49.204;8.116;2023-04-16T08:25:40;13.10;82.90
24164;DHT22;12319;49.204;8.116;2023-04-16T08:28:06;13.10;83.00
24164;DHT22;12319;49.204;8.116;2023-04-16T08:30:32;13.20;83.10
24164;DHT22;12319;49.204;8.116;2023-04-16T08:32:59;13.10;82.70
24164;DHT22;12319;49.204;8.116;2023-04-16T08:35:24;13.10;82.60
24164;DHT22;12319;49.204;8.116;2023-04-16T08:37:50;13.20;82.70
24164;DHT22;12319;49.204;8.116;2023-04-16T08:40:16;13.20;82.70
24164;DHT22;12319;49.204;8.116;2023-04-16T08:42:48;13.20;82.40
24164;DHT22;12319;49.204;8.116;2023-04-16T08:45:17;13.20;82.50
24164;DHT22;12319;49.204;8.116;2023-04-16T08:47:50;13.20;82.40
24164;DHT22;12319;49.204;8.116;2023-04-16T08:50:18;13.20;82.50
24164;DHT22;12319;49.204;8.116;2023-04-16T08:53:02;13.10;82.50
24164;DHT22;12319;49.204;8.116;2023-04-16T08:55:35;13.10;82.60
24164;DHT22;12319;49.204;8.116;2023-04-16T08:58:13;13.00;82.50
24164;DHT22;12319;49.204;8.116;2023-04-16T09:00:39;12.90;82.50
24164;DHT22;12319;49.204;8.116;2023-04-16T09:03:05;12.90;82.70
24164;DHT22;12319;49.204;8.116;2023-04-16T09:05:32;12.80;82.90
24164;DHT22;12319;49.204;8.116;2023-04-16T09:07:58;12.70;83.10
24164;DHT22;12319;49.204;8.116;2023-04-16T09:10:25;12.70;83.10
24164;DHT22;12319;49.204;8.116;2023-04-16T09:12:51;12.70;83.20
24164;DHT22;12319;49.204;8.116;2023-04-16T09:15:16;12.60;83.00
24164;DHT22;12319;49.204;8.116;2023-04-16T09:17:44;12.70;83.10
24164;DHT22;12319;49.204;8.116;2023-04-16T09:20:11;12.70;83.10
24164;DHT22;12319;49.204;8.116;2023-04-16T09:22:37;12.60;82.80
24164;DHT22;12319;49.204;8.116;2023-04-16T09:25:05;12.70;83.10
24164;DHT22;12319;49.204;8.116;2023-04-16T09:27:31;12.70;82.90
24164;DHT22;12319;49.204;8.116;2023-04-16T09:29:57;12.70;82.90
24164;DHT22;12319;49.204;8.116;2023-04-16T09:32:27;12.70;82.80
24164;DHT22;12319;49.204;8.116;2023-04-16T09:35:00;12.70;82.80
24164;DHT22;12319;49.204;8.116;2023-04-16T09:37:30;12.80;82.90
24164;DHT22;12319;49.204;8.116;2023-04-16T09:40:01;12.80;82.70
24164;DHT22;12319;49.204;8.116;2023-04-16T09:42:29;12.80;82.40
24164;DHT22;12319;49.204;8.116;2023-04-16T09:44:57;12.80;82.40
24164;DHT22;12319;49.204;8.116;2023-04-16T09:47:24;12.80;82.40
24164;DHT22;12319;49.204;8.116;2023-04-16T09:49:51;12.80;82.20
24164;DHT22;12319;49.204;8.116;2023-04-16T09:52:21;12.90;82.20
24164;DHT22;12319;49.204;8.116;2023-04-16T09:54:51;12.90;82.20
24164;DHT22;12319;49.204;8.116;2023-04-16T09:57:21;13.10;82.30
24164;DHT22;12319;49.204;8.116;2023-04-16T09:59:54;13.20;82.30
24164;DHT22;12319;49.204;8.116;2023-04-16T10:02:29;13.30;82.10
24164;DHT22;12319;49.204;8.116;2023-04-16T10:04:55;13.20;81.80
24164;DHT22;12319;49.204;8.116;2023-04-16T10:07:22;13.20;81.80
24164;DHT22;12319;49.204;8.116;2023-04-16T10:09:48;13.20;81.80
24164;DHT22;12319;49.204;8.116;2023-04-16T10:12:15;13.20;81.90
24164;DHT22;12319;49.204;8.116;2023-04-16T10:14:41;13.10;81.60
24164;DHT22;12319;49.204;8.116;2023-04-16T10:17:07;13.10;81.70
24164;DHT22;12319;49.204;8.116;2023-04-16T10:19:34;13.00;81.80
24164;DHT22;12319;49.204;8.116;2023-04-16T10:22:03;13.00;81.90
24164;DHT22;12319;49.204;8.116;2023-04-16T10:24:29;13.00;82.10
24164;DHT22;12319;49.204;8.116;2023-04-16T10:26:56;13.00;82.10
24164;DHT22;12319;49.204;8.116;2023-04-16T10:29:22;13.00;82.40
24164;DHT22;12319;49.204;8.116;2023-04-16T10:31:49;13.00;82.40
24164;DHT22;12319;49.204;8.116;2023-04-16T10:34:15;13.00;82.40
24164;DHT22;12319;49.204;8.116;2023-04-16T10:36:41;13.00;82.40
24164;DHT22;12319;49.204;8.116;2023-04-16T10:39:11;13.00;82.30
24164;DHT22;12319;49.204;8.116;2023-04-16T10:41:37;13.00;82.50
24164;DHT22;12319;49.204;8.116;2023-04-16T10:46:32;12.90;82.40
24164;DHT22;12319;49.204;8.116;2023-04-16T10:49:11;12.90;82.50
24164;DHT22;12319;49.204;8.116;2023-04-16T10:51:37;12.90;82.50
24164;DHT22;12319;49.204;8.116;2023-04-16T10:56:36;12.90;82.50
24164;DHT22;12319;49.204;8.116;2023-04-16T10:59:06;12.90;82.50
24164;DHT22;12319;49.204;8.116;2023-04-16T11:01:36;12.90;82.70
24164;DHT22;12319;49.204;8.116;2023-04-16T11:09:58;13.00;83.50
24164;DHT22;12319;49.204;8.116;2023-04-16T11:12:35;12.90;83.60
24164;DHT22;12319;49.204;8.116;2023-04-16T11:15:11;12.80;83.40
24164;DHT22;12319;49.204;8.116;2023-04-16T11:17:39;12.90;83.80
24164;DHT22;12319;49.204;8.116;2023-04-16T11:20:14;12.90;83.90
24164;DHT22;12319;49.204;8.116;2023-04-16T11:22:41;12.90;83.90
24164;DHT22;12319;49.204;8.116;2023-04-16T11:25:07;13.00;83.90
24164;DHT22;12319;49.204;8.116;2023-04-16T11:27:33;13.00;83.90
24164;DHT22;12319;49.204;8.116;2023-04-16T11:30:02;13.10;84.10
24164;DHT22;12319;49.204;8.116;2023-04-16T11:32:36;13.20;84.40
24164;DHT22;12319;49.204;8.116;2023-04-16T11:35:03;13.20;84.50
24164;DHT22;12319;49.204;8.116;2023-04-16T11:37:34;13.20;84.20
24164;DHT22;12319;49.204;8.116;2023-04-16T11:40:01;13.20;84.80
24164;DHT22;12319;49.204;8.116;2023-04-16T11:42:31;13.20;84.80
24164;DHT22;12319;49.204;8.116;2023-04-16T11:44:58;13.10;84.60
24164;DHT22;12319;49.204;8.116;2023-04-16T11:47:44;13.00;84.50
24164;DHT22;12319;49.204;8.116;2023-04-16T11:50:28;13.00;84.90
24164;DHT22;12319;49.204;8.116;2023-04-16T11:52:56;12.90;84.80
24164;DHT22;12319;49.204;8.116;2023-04-16T11:55:22;12.90;84.70
24164;DHT22;12319;49.204;8.116;2023-04-16T11:57:48;12.80;84.60
24164;DHT22;12319;49.204;8.116;2023-04-16T12:00:14;12.80;84.90
24164;DHT22;12319;49.204;8.116;2023-04-16T12:02:50;12.80;85.10
24164;DHT22;12319;49.204;8.116;2023-04-16T12:05:36;12.80;85.30
24164;DHT22;12319;49.204;8.116;2023-04-16T12:08:10;12.80;85.90
24164;DHT22;12319;49.204;8.116;2023-04-16T12:10:53;12.70;85.90
24164;DHT22;12319;49.204;8.116;2023-04-16T12:13:19;12.70;85.90
24164;DHT22;12319;49.204;8.116;2023-04-16T12:15:45;12.70;86.00
24164;DHT22;12319;49.204;8.116;2023-04-16T12:18:11;12.70;86.40
24164;DHT22;12319;49.204;8.116;2023-04-16T12:20:40;12.70;86.40
24164;DHT22;12319;49.204;8.116;2023-04-16T12:23:06;12.60;86.70
24164;DHT22;12319;49.204;8.116;2023-04-16T12:25:32;12.60;86.70
24164;DHT22;12319;49.204;8.116;2023-04-16T12:27:58;12.60;87.00
24164;DHT22;12319;49.204;8.116;2023-04-16T12:30:25;12.60;86.90
24164;DHT22;12319;49.204;8.116;2023-04-16T12:33:12;12.60;86.90
24164;DHT22;12319;49.204;8.116;2023-04-16T12:35:38;12.60;86.90
24164;DHT22;12319;49.204;8.116;2023-04-16T12:38:06;12.60;86.60
24164;DHT22;12319;49.204;8.116;2023-04-16T12:40:32;12.60;86.70
24164;DHT22;12319;49.204;8.116;2023-04-16T12:42:58;12.60;86.40
24164;DHT22;12319;49.204;8.116;2023-04-16T12:45:24;12.60;87.30
24164;DHT22;12319;49.204;8.116;2023-04-16T12:47:50;12.60;86.70
24164;DHT22;12319;49.204;8.116;2023-04-16T12:50:16;12.60;87.30
24164;DHT22;12319;49.204;8.116;2023-04-16T12:52:42;12.50;86.60
24164;DHT22;12319;49.204;8.116;2023-04-16T12:55:08;12.50;86.90
24164;DHT22;12319;49.204;8.116;2023-04-16T12:57:33;12.50;86.70
24164;DHT22;12319;49.204;8.116;2023-04-16T12:59:59;12.50;87.00
24164;DHT22;12319;49.204;8.116;2023-04-16T13:02:26;12.50;87.10
24164;DHT22;12319;49.204;8.116;2023-04-16T13:04:52;12.50;87.30
24164;DHT22;12319;49.204;8.116;2023-04-16T13:07:18;12.50;87.20
24164;DHT22;12319;49.204;8.116;2023-04-16T13:09:45;12.50;87.20
24164;DHT22;12319;49.204;8.116;2023-04-16T13:12:11;12.50;87.20
24164;DHT22;12319;49.204;8.116;2023-04-16T13:14:37;12.50;87.10
24164;DHT22;12319;49.204;8.116;2023-04-16T13:17:02;12.50;87.10
24164;DHT22;12319;49.204;8.116;2023-04-16T13:19:29;12.60;87.30
24164;DHT22;12319;49.204;8.116;2023-04-16T13:21:54;12.50;87.20
24164;DHT22;12319;49.204;8.116;2023-04-16T13:24:20;12.60;87.10
24164;DHT22;12319;49.204;8.116;2023-04-16T13:26:47;12.60;87.20
24164;DHT22;12319;49.204;8.116;2023-04-16T13:29:12;12.60;87.20
24164;DHT22;12319;49.204;8.116;2023-04-16T13:31:38;12.60;87.10
24164;DHT22;12319;49.204;8.116;2023-04-16T13:34:04;12.70;87.10
24164;DHT22;12319;49.204;8.116;2023-04-16T13:36:29;12.60;87.10
24164;DHT22;12319;49.204;8.116;2023-04-16T13:38:57;12.70;87.30
24164;DHT22;12319;49.204;8.116;2023-04-16T13:41:22;12.70;87.50
24164;DHT22;12319;49.204;8.116;2023-04-16T13:43:48;12.70;87.20
24164;DHT22;12319;49.204;8.116;2023-04-16T13:46:14;12.70;87.10
24164;DHT22;12319;49.204;8.116;2023-04-16T13:48:39;12.80;87.40
24164;DHT22;12319;49.204;8.116;2023-04-16T13:51:05;12.80;87.10
24164;DHT22;12319;49.204;8.116;2023-04-16T13:53:31;12.80;87.30
24164;DHT22;12319;49.204;8.116;2023-04-16T13:55:56;12.80;87.30
24164;DHT22;12319;49.204;8.116;2023-04-16T13:58:22;12.80;87.20
24164;DHT22;12319;49.204;8.116;2023-04-16T14:00:47;12.90;87.20
24164;DHT22;12319;49.204;8.116;2023-04-16T14:03:13;12.90;87.00
24164;DHT22;12319;49.204;8.116;2023-04-16T14:05:38;13.00;87.20
24164;DHT22;12319;49.204;8.116;2023-04-16T14:08:05;13.10;86.90
24164;DHT22;12319;49.204;8.116;2023-04-16T14:10:31;13.10;86.80
24164;DHT22;12319;49.204;8.116;2023-04-16T14:12:57;13.10;86.80
24164;DHT22;12319;49.204;8.116;2023-04-16T14:15:22;13.10;86.90
24164;DHT22;12319;49.204;8.116;2023-04-16T14:17:51;13.10;86.90
24164;DHT22;12319;49.204;8.116;2023-04-16T14:20:16;13.10;86.70
24164;DHT22;12319;49.204;8.116;2023-04-16T14:22:42;13.10;87.00
24164;DHT22;12319;49.204;8.116;2023-04-16T14:25:08;13.20;87.20
24164;DHT22;12319;49.204;8.116;2023-04-16T14:27:34;13.10;87.00
24164;DHT22;12319;49.204;8.116;2023-04-16T14:30:00;13.10;88.00
24164;DHT22;12319;49.204;8.116;2023-04-16T14:32:25;13.00;87.20
24164;DHT22;12319;49.204;8.116;2023-04-16T14:34:51;13.00;87.00
24164;DHT22;12319;49.204;8.116;2023-04-16T14:37:17;13.00;87.30
24164;DHT22;12319;49.204;8.116;2023-04-16T14:39:43;12.90;87.10
24164;DHT22;12319;49.204;8.116;2023-04-16T14:42:09;13.00;87.10
24164;DHT22;12319;49.204;8.116;2023-04-16T14:44:35;13.00;87.30
24164;DHT22;12319;49.204;8.116;2023-04-16T14:47:00;13.00;87.30
24164;DHT22;12319;49.204;8.116;2023-04-16T14:49:26;13.10;87.40
24164;DHT22;12319;49.204;8.116;2023-04-16T14:51:51;13.10;87.20
24164;DHT22;12319;49.204;8.116;2023-04-16T14:54:20;13.20;87.40
24164;DHT22;12319;49.204;8.116;2023-04-16T14:56:46;13.20;87.50
24164;DHT22;12319;49.204;8.116;2023-04-16T14:59:11;13.20;87.60
24164;DHT22;12319;49.204;8.116;2023-04-16T15:01:38;13.10;87.40
24164;DHT22;12319;49.204;8.116;2023-04-16T15:04:04;13.20;87.60
24164;DHT22;12319;49.204;8.116;2023-04-16T15:06:30;13.20;87.70
24164;DHT22;12319;49.204;8.116;2023-04-16T15:08:56;13.20;87.70
24164;DHT22;12319;49.204;8.116;2023-04-16T15:11:22;13.20;87.60
24164;DHT22;12319;49.204;8.116;2023-04-16T15:13:47;13.20;87.70
24164;DHT22;12319;49.204;8.116;2023-04-16T15:16:13;13.20;87.70
24164;DHT22;12319;49.204;8.116;2023-04-16T15:18:39;13.30;88.00
24164;DHT22;12319;49.204;8.116;2023-04-16T15:21:04;13.40;88.00
24164;DHT22;12319;49.204;8.116;2023-04-16T15:23:30;13.40;88.20
24164;DHT22;12319;49.204;8.116;2023-04-16T15:25:56;13.50;88.40
24164;DHT22;12319;49.204;8.116;2023-04-16T15:28:22;13.50;88.40
24164;DHT22;12319;49.204;8.116;2023-04-16T15:30:48;13.60;88.10
24164;DHT22;12319;49.204;8.116;2023-04-16T15:33:13;13.60;88.00
24164;DHT22;12319;49.204;8.116;2023-04-16T15:35:39;13.60;88.00
24164;DHT22;12319;49.204;8.116;2023-04-16T15:38:08;13.60;87.80